sensor_id;sensor_type;location;lat;lon;timestamp;P1;durP1;ratioP1;P2;durP2;ratioP2
6374;SDS011;35400;45.472;-122.822;2023-02-28T00:01:24;0.97;;;0.83;;
6374;SDS011;35400;45.472;-122.822;2023-02-28T00:03:51;1.83;;;1.00;;
6374;SDS011;35400;45.472;-122.822;2023-02-28T00:06:18;1.57;;;0.70;;
6374;SDS011;35400;45.472;-122.822;2023-02-28T00:08:46;1.23;;;0.70;;
6374;SDS011;35400;45.472;-122.822;2023-02-28T00:11:14;3.10;;;1.17;;
6374;SDS011;35400;45.472;-122.822;2023-02-28T00:13:42;0.87;;;0.83;;
6374;SDS011;35400;45.472;-122.822;2023-02-28T00:16:16;0.87;;;0.80;;
6374;SDS011;35400;45.472;-122.822;2023-02-28T00:18:45;1.47;;;0.80;;
6374;SDS011;35400;45.472;-122.822;2023-02-28T00:21:13;2.10;;;1.07;;
6374;SDS011;35400;45.472;-122.822;2023-02-28T00:23:41;2.33;;;1.20;;
6374;SDS011;35400;45.472;-122.822;2023-02-28T00:26:07;2.27;;;1.10;;
6374;SDS011;35400;45.472;-122.822;2023-02-28T00:28:36;1.57;;;1.00;;
6374;SDS011;35400;45.472;-122.822;2023-02-28T00:31:03;1.73;;;1.03;;
6374;SDS011;35400;45.472;-122.822;2023-02-28T00:33:30;1.73;;;1.13;;
6374;SDS011;35400;45.472;-122.822;2023-02-28T00:36:01;2.23;;;1.00;;
6374;SDS011;35400;45.472;-122.822;2023-02-28T00:38:35;1.20;;;0.97;;
6374;SDS011;35400;45.472;-122.822;2023-02-28T00:41:03;1.50;;;0.97;;
6374;SDS011;35400;45.472;-122.822;2023-02-28T00:43:31;1.67;;;0.93;;
6374;SDS011;35400;45.472;-122.822;2023-02-28T00:45:58;3.50;;;1.17;;
6374;SDS011;35400;45.472;-122.822;2023-02-28T00:48:26;1.33;;;1.03;;
6374;SDS011;35400;45.472;-122.822;2023-02-28T00:50:52;1.00;;;0.80;;
6374;SDS011;35400;45.472;-122.822;2023-02-28T00:53:20;1.30;;;1.20;;
6374;SDS011;35400;45.472;-122.822;2023-02-28T00:55:48;2.07;;;1.20;;
6374;SDS011;35400;45.472;-122.822;2023-02-28T00:58:15;2.00;;;1.70;;
6374;SDS011;35400;45.472;-122.822;2023-02-28T01:00:42;2.77;;;1.80;;
6374;SDS011;35400;45.472;-122.822;2023-02-28T01:03:17;6.77;;;2.30;;
6374;SDS011;35400;45.472;-122.822;2023-02-28T01:05:47;4.03;;;2.17;;
6374;SDS011;35400;45.472;-122.822;2023-02-28T01:08:16;1.80;;;1.70;;
6374;SDS011;35400;45.472;-122.822;2023-02-28T01:10:43;2.77;;;2.03;;
6374;SDS011;35400;45.472;-122.822;2023-02-28T01:13:10;2.83;;;2.03;;
6374;SDS011;35400;45.472;-122.822;2023-02-28T01:15:38;3.53;;;3.07;;
6374;SDS011;35400;45.472;-122.822;2023-02-28T01:18:08;3.47;;;2.53;;
6374;SDS011;35400;45.472;-122.822;2023-02-28T01:20:37;2.93;;;2.27;;
6374;SDS011;35400;45.472;-122.822;2023-02-28T01:23:04;1.73;;;1.60;;
6374;SDS011;35400;45.472;-122.822;2023-02-28T01:25:36;2.77;;;2.17;;
6374;SDS011;35400;45.472;-122.822;2023-02-28T01:28:04;2.03;;;1.77;;
6374;SDS011;35400;45.472;-122.822;2023-02-28T01:30:31;2.27;;;1.93;;
6374;SDS011;35400;45.472;-122.822;2023-02-28T01:32:59;2.37;;;1.97;;
6374;SDS011;35400;45.472;-122.822;2023-02-28T01:35:26;4.27;;;2.97;;
6374;SDS011;35400;45.472;-122.822;2023-02-28T01:37:53;2.93;;;2.20;;
6374;SDS011;35400;45.472;-122.822;2023-02-28T01:40:20;3.63;;;2.97;;
6374;SDS011;35400;45.472;-122.822;2023-02-28T01:42:48;3.90;;;2.97;;
6374;SDS011;35400;45.472;-122.822;2023-02-28T01:45:18;7.90;;;3.40;;
6374;SDS011;35400;45.472;-122.822;2023-02-28T01:47:55;5.33;;;3.03;;
6374;SDS011;35400;45.472;-122.822;2023-02-28T01:50:28;3.53;;;2.57;;
6374;SDS011;35400;45.472;-122.822;2023-02-28T01:53:00;2.53;;;1.97;;
6374;SDS011;35400;45.472;-122.822;2023-02-28T01:55:31;3.93;;;2.30;;
6374;SDS011;35400;45.472;-122.822;2023-02-28T01:58:00;2.33;;;2.10;;
6374;SDS011;35400;45.472;-122.822;2023-02-28T02:00:30;2.33;;;1.93;;
6374;SDS011;35400;45.472;-122.822;2023-02-28T02:03:03;2.20;;;1.83;;
6374;SDS011;35400;45.472;-122.822;2023-02-28T02:05:36;3.80;;;2.63;;
6374;SDS011;35400;45.472;-122.822;2023-02-28T02:08:09;4.43;;;2.80;;
6374;SDS011;35400;45.472;-122.822;2023-02-28T02:10:42;4.50;;;2.40;;
6374;SDS011;35400;45.472;-122.822;2023-02-28T02:18:48;0.77;;;0.70;;
6374;SDS011;35400;45.472;-122.822;2023-02-28T02:24:40;1.80;;;0.90;;
6374;SDS011;35400;45.472;-122.822;2023-02-28T02:27:47;0.90;;;0.70;;
6374;SDS011;35400;45.472;-122.822;2023-02-28T02:36:00;0.73;;;0.70;;
6374;SDS011;35400;45.472;-122.822;2023-02-28T02:38:34;0.77;;;0.70;;
6374;SDS011;35400;45.472;-122.822;2023-02-28T02:41:19;0.90;;;0.90;;
6374;SDS011;35400;45.472;-122.822;2023-02-28T02:46:38;0.93;;;0.83;;
6374;SDS011;35400;45.472;-122.822;2023-02-28T02:49:21;0.97;;;0.77;;
6374;SDS011;35400;45.472;-122.822;2023-02-28T02:52:02;0.83;;;0.80;;
6374;SDS011;35400;45.472;-122.822;2023-02-28T02:54:43;1.33;;;1.17;;
6374;SDS011;35400;45.472;-122.822;2023-02-28T02:57:17;1.27;;;0.90;;
6374;SDS011;35400;45.472;-122.822;2023-02-28T02:59:53;1.63;;;1.10;;
6374;SDS011;35400;45.472;-122.822;2023-02-28T03:02:22;1.47;;;1.10;;
6374;SDS011;35400;45.472;-122.822;2023-02-28T03:04:55;3.13;;;1.03;;
6374;SDS011;35400;45.472;-122.822;2023-02-28T03:07:27;1.07;;;0.97;;
6374;SDS011;35400;45.472;-122.822;2023-02-28T03:09:54;0.73;;;0.70;;
6374;SDS011;35400;45.472;-122.822;2023-02-28T03:12:28;0.60;;;0.60;;
6374;SDS011;35400;45.472;-122.822;2023-02-28T03:15:11;0.80;;;0.80;;
6374;SDS011;35400;45.472;-122.822;2023-02-28T03:18:01;1.03;;;0.93;;
6374;SDS011;35400;45.472;-122.822;2023-02-28T03:20:40;1.13;;;0.80;;
6374;SDS011;35400;45.472;-122.822;2023-02-28T03:23:23;1.83;;;1.30;;
6374;SDS011;35400;45.472;-122.822;2023-02-28T03:29:05;1.30;;;1.20;;
6374;SDS011;35400;45.472;-122.822;2023-02-28T03:31:58;0.80;;;0.80;;
6374;SDS011;35400;45.472;-122.822;2023-02-28T03:34:46;1.83;;;0.97;;
6374;SDS011;35400;45.472;-122.822;2023-02-28T03:37:24;1.80;;;1.23;;
6374;SDS011;35400;45.472;-122.822;2023-02-28T03:40:28;1.27;;;0.90;;
6374;SDS011;35400;45.472;-122.822;2023-02-28T03:42:50;1.10;;;1.10;;
6374;SDS011;35400;45.472;-122.822;2023-02-28T03:45:21;2.90;;;1.30;;
6374;SDS011;35400;45.472;-122.822;2023-02-28T03:47:53;0.90;;;0.60;;
6374;SDS011;35400;45.472;-122.822;2023-02-28T03:50:24;1.10;;;0.90;;
6374;SDS011;35400;45.472;-122.822;2023-02-28T03:55:50;2.10;;;0.77;;
6374;SDS011;35400;45.472;-122.822;2023-02-28T04:04:00;2.63;;;1.27;;
6374;SDS011;35400;45.472;-122.822;2023-02-28T04:06:29;1.60;;;0.63;;
6374;SDS011;35400;45.472;-122.822;2023-02-28T04:08:58;0.50;;;0.50;;
6374;SDS011;35400;45.472;-122.822;2023-02-28T04:11:32;1.47;;;1.00;;
6374;SDS011;35400;45.472;-122.822;2023-02-28T04:14:03;0.33;;;0.33;;
6374;SDS011;35400;45.472;-122.822;2023-02-28T04:16:31;0.50;;;0.50;;
6374;SDS011;35400;45.472;-122.822;2023-02-28T04:18:58;1.30;;;0.90;;
6374;SDS011;35400;45.472;-122.822;2023-02-28T04:21:28;0.70;;;0.60;;
6374;SDS011;35400;45.472;-122.822;2023-02-28T04:23:56;0.60;;;0.60;;
6374;SDS011;35400;45.472;-122.822;2023-02-28T04:26:29;1.60;;;1.50;;
6374;SDS011;35400;45.472;-122.822;2023-02-28T04:28:56;0.60;;;0.60;;
6374;SDS011;35400;45.472;-122.822;2023-02-28T04:31:24;1.50;;;1.13;;
6374;SDS011;35400;45.472;-122.822;2023-02-28T04:33:50;0.40;;;0.40;;
6374;SDS011;35400;45.472;-122.822;2023-02-28T04:36:17;2.10;;;1.00;;
6374;SDS011;35400;45.472;-122.822;2023-02-28T04:38:44;0.50;;;0.50;;
6374;SDS011;35400;45.472;-122.822;2023-02-28T04:41:12;0.47;;;0.40;;
6374;SDS011;35400;45.472;-122.822;2023-02-28T04:43:39;0.87;;;0.40;;
6374;SDS011;35400;45.472;-122.822;2023-02-28T04:46:06;0.87;;;0.57;;
6374;SDS011;35400;45.472;-122.822;2023-02-28T04:48:35;0.80;;;0.60;;
6374;SDS011;35400;45.472;-122.822;2023-02-28T04:51:03;0.40;;;0.30;;
6374;SDS011;35400;45.472;-122.822;2023-02-28T04:53:32;0.20;;;0.20;;
6374;SDS011;35400;45.472;-122.822;2023-02-28T04:56:00;0.30;;;0.30;;
6374;SDS011;35400;45.472;-122.822;2023-02-28T04:58:27;0.60;;;0.60;;
6374;SDS011;35400;45.472;-122.822;2023-02-28T05:01:01;0.50;;;0.40;;
6374;SDS011;35400;45.472;-122.822;2023-02-28T05:03:38;0.70;;;0.70;;
6374;SDS011;35400;45.472;-122.822;2023-02-28T05:06:09;0.50;;;0.47;;
6374;SDS011;35400;45.472;-122.822;2023-02-28T05:08:37;0.30;;;0.30;;
6374;SDS011;35400;45.472;-122.822;2023-02-28T05:11:06;0.30;;;0.30;;
6374;SDS011;35400;45.472;-122.822;2023-02-28T05:13:39;1.70;;;0.30;;
6374;SDS011;35400;45.472;-122.822;2023-02-28T05:16:06;0.30;;;0.30;;
6374;SDS011;35400;45.472;-122.822;2023-02-28T05:18:33;0.30;;;0.30;;
6374;SDS011;35400;45.472;-122.822;2023-02-28T05:21:00;0.20;;;0.20;;
6374;SDS011;35400;45.472;-122.822;2023-02-28T05:23:29;0.30;;;0.30;;
6374;SDS011;35400;45.472;-122.822;2023-02-28T05:25:56;0.33;;;0.33;;
6374;SDS011;35400;45.472;-122.822;2023-02-28T05:28:23;1.37;;;0.30;;
6374;SDS011;35400;45.472;-122.822;2023-02-28T05:30:50;0.40;;;0.40;;
6374;SDS011;35400;45.472;-122.822;2023-02-28T05:33:17;0.57;;;0.40;;
6374;SDS011;35400;45.472;-122.822;2023-02-28T05:35:44;0.50;;;0.40;;
6374;SDS011;35400;45.472;-122.822;2023-02-28T05:38:11;0.30;;;0.30;;
6374;SDS011;35400;45.472;-122.822;2023-02-28T05:40:38;0.40;;;0.30;;
6374;SDS011;35400;45.472;-122.822;2023-02-28T05:43:07;0.30;;;0.30;;
6374;SDS011;35400;45.472;-122.822;2023-02-28T05:45:36;0.47;;;0.47;;
6374;SDS011;35400;45.472;-122.822;2023-02-28T05:48:02;0.97;;;0.50;;
6374;SDS011;35400;45.472;-122.822;2023-02-28T05:50:29;0.50;;;0.50;;
6374;SDS011;35400;45.472;-122.822;2023-02-28T05:52:56;0.40;;;0.40;;
6374;SDS011;35400;45.472;-122.822;2023-02-28T05:55:23;0.43;;;0.40;;
6374;SDS011;35400;45.472;-122.822;2023-02-28T05:57:50;0.40;;;0.40;;
6374;SDS011;35400;45.472;-122.822;2023-02-28T06:00:17;1.70;;;0.40;;
6374;SDS011;35400;45.472;-122.822;2023-02-28T06:02:44;0.70;;;0.70;;
6374;SDS011;35400;45.472;-122.822;2023-02-28T06:05:17;1.70;;;0.70;;
6374;SDS011;35400;45.472;-122.822;2023-02-28T06:07:45;0.73;;;0.60;;
6374;SDS011;35400;45.472;-122.822;2023-02-28T06:10:11;0.83;;;0.77;;
6374;SDS011;35400;45.472;-122.822;2023-02-28T06:12:38;2.60;;;0.47;;
6374;SDS011;35400;45.472;-122.822;2023-02-28T06:15:07;0.77;;;0.77;;
6374;SDS011;35400;45.472;-122.822;2023-02-28T06:17:41;0.83;;;0.60;;
6374;SDS011;35400;45.472;-122.822;2023-02-28T06:20:10;0.50;;;0.50;;
6374;SDS011;35400;45.472;-122.822;2023-02-28T06:22:38;0.53;;;0.53;;
6374;SDS011;35400;45.472;-122.822;2023-02-28T06:25:06;1.07;;;0.50;;
6374;SDS011;35400;45.472;-122.822;2023-02-28T06:27:33;1.40;;;0.87;;
6374;SDS011;35400;45.472;-122.822;2023-02-28T06:30:00;0.60;;;0.60;;
6374;SDS011;35400;45.472;-122.822;2023-02-28T06:32:29;0.67;;;0.60;;
6374;SDS011;35400;45.472;-122.822;2023-02-28T06:34:55;0.60;;;0.60;;
6374;SDS011;35400;45.472;-122.822;2023-02-28T06:37:23;0.70;;;0.60;;
6374;SDS011;35400;45.472;-122.822;2023-02-28T06:39:52;1.80;;;0.40;;
6374;SDS011;35400;45.472;-122.822;2023-02-28T06:42:22;0.40;;;0.40;;
6374;SDS011;35400;45.472;-122.822;2023-02-28T06:44:55;1.40;;;0.40;;
6374;SDS011;35400;45.472;-122.822;2023-02-28T06:47:22;0.50;;;0.50;;
6374;SDS011;35400;45.472;-122.822;2023-02-28T06:49:48;0.50;;;0.50;;
6374;SDS011;35400;45.472;-122.822;2023-02-28T06:52:16;0.40;;;0.40;;
6374;SDS011;35400;45.472;-122.822;2023-02-28T06:54:43;2.47;;;0.30;;
6374;SDS011;35400;45.472;-122.822;2023-02-28T06:57:09;0.93;;;0.50;;
6374;SDS011;35400;45.472;-122.822;2023-02-28T06:59:36;0.40;;;0.40;;
6374;SDS011;35400;45.472;-122.822;2023-02-28T07:02:03;0.37;;;0.37;;
6374;SDS011;35400;45.472;-122.822;2023-02-28T07:04:32;0.30;;;0.30;;
6374;SDS011;35400;45.472;-122.822;2023-02-28T07:06:59;0.63;;;0.37;;
6374;SDS011;35400;45.472;-122.822;2023-02-28T07:09:26;0.37;;;0.37;;
6374;SDS011;35400;45.472;-122.822;2023-02-28T07:11:55;0.30;;;0.30;;
6374;SDS011;35400;45.472;-122.822;2023-02-28T07:14:22;0.30;;;0.30;;
6374;SDS011;35400;45.472;-122.822;2023-02-28T07:16:49;0.70;;;0.47;;
6374;SDS011;35400;45.472;-122.822;2023-02-28T07:19:16;0.27;;;0.27;;
6374;SDS011;35400;45.472;-122.822;2023-02-28T07:21:43;0.40;;;0.40;;
6374;SDS011;35400;45.472;-122.822;2023-02-28T07:24:10;0.60;;;0.30;;
6374;SDS011;35400;45.472;-122.822;2023-02-28T07:26:37;0.67;;;0.20;;
6374;SDS011;35400;45.472;-122.822;2023-02-28T07:29:04;0.27;;;0.27;;
6374;SDS011;35400;45.472;-122.822;2023-02-28T07:31:31;2.33;;;0.80;;
6374;SDS011;35400;45.472;-122.822;2023-02-28T07:33:58;0.40;;;0.40;;
6374;SDS011;35400;45.472;-122.822;2023-02-28T07:36:25;0.30;;;0.30;;
6374;SDS011;35400;45.472;-122.822;2023-02-28T07:38:51;0.30;;;0.30;;
6374;SDS011;35400;45.472;-122.822;2023-02-28T07:41:21;0.50;;;0.27;;
6374;SDS011;35400;45.472;-122.822;2023-02-28T07:43:52;0.20;;;0.20;;
6374;SDS011;35400;45.472;-122.822;2023-02-28T07:46:21;0.60;;;0.20;;
6374;SDS011;35400;45.472;-122.822;2023-02-28T07:48:48;0.63;;;0.30;;
6374;SDS011;35400;45.472;-122.822;2023-02-28T07:51:15;0.33;;;0.30;;
6374;SDS011;35400;45.472;-122.822;2023-02-28T07:53:42;0.73;;;0.30;;
6374;SDS011;35400;45.472;-122.822;2023-02-28T07:56:09;1.00;;;0.40;;
6374;SDS011;35400;45.472;-122.822;2023-02-28T07:58:36;0.17;;;0.17;;
6374;SDS011;35400;45.472;-122.822;2023-02-28T08:01:07;0.80;;;0.40;;
6374;SDS011;35400;45.472;-122.822;2023-02-28T08:03:36;0.50;;;0.30;;
6374;SDS011;35400;45.472;-122.822;2023-02-28T08:06:04;0.77;;;0.30;;
6374;SDS011;35400;45.472;-122.822;2023-02-28T08:08:33;0.30;;;0.30;;
6374;SDS011;35400;45.472;-122.822;2023-02-28T08:11:01;0.40;;;0.37;;
6374;SDS011;35400;45.472;-122.822;2023-02-28T08:13:29;0.50;;;0.50;;
6374;SDS011;35400;45.472;-122.822;2023-02-28T08:15:56;1.23;;;0.70;;
6374;SDS011;35400;45.472;-122.822;2023-02-28T08:18:23;0.70;;;0.70;;
6374;SDS011;35400;45.472;-122.822;2023-02-28T08:20:50;1.87;;;0.70;;
6374;SDS011;35400;45.472;-122.822;2023-02-28T08:23:17;0.93;;;0.80;;
6374;SDS011;35400;45.472;-122.822;2023-02-28T08:25:44;0.60;;;0.60;;
6374;SDS011;35400;45.472;-122.822;2023-02-28T08:28:11;0.73;;;0.63;;
6374;SDS011;35400;45.472;-122.822;2023-02-28T08:30:38;1.30;;;0.80;;
6374;SDS011;35400;45.472;-122.822;2023-02-28T08:33:06;1.40;;;0.90;;
6374;SDS011;35400;45.472;-122.822;2023-02-28T08:35:34;0.50;;;0.50;;
6374;SDS011;35400;45.472;-122.822;2023-02-28T08:38:03;1.33;;;0.70;;
6374;SDS011;35400;45.472;-122.822;2023-02-28T08:40:29;1.57;;;0.50;;
6374;SDS011;35400;45.472;-122.822;2023-02-28T08:42:56;0.63;;;0.43;;
6374;SDS011;35400;45.472;-122.822;2023-02-28T08:45:24;1.40;;;0.70;;
6374;SDS011;35400;45.472;-122.822;2023-02-28T08:47:51;1.57;;;0.87;;
6374;SDS011;35400;45.472;-122.822;2023-02-28T08:50:19;2.57;;;0.90;;
6374;SDS011;35400;45.472;-122.822;2023-02-28T08:52:46;1.57;;;0.80;;
6374;SDS011;35400;45.472;-122.822;2023-02-28T08:55:13;2.10;;;0.70;;
6374;SDS011;35400;45.472;-122.822;2023-02-28T08:57:41;1.00;;;0.63;;
6374;SDS011;35400;45.472;-122.822;2023-02-28T09:00:07;1.23;;;0.70;;
6374;SDS011;35400;45.472;-122.822;2023-02-28T09:02:35;2.10;;;1.03;;
6374;SDS011;35400;45.472;-122.822;2023-02-28T09:05:02;2.57;;;0.60;;
6374;SDS011;35400;45.472;-122.822;2023-02-28T09:07:30;1.67;;;0.73;;
6374;SDS011;35400;45.472;-122.822;2023-02-28T09:09:56;0.67;;;0.67;;
6374;SDS011;35400;45.472;-122.822;2023-02-28T09:12:24;0.60;;;0.60;;
6374;SDS011;35400;45.472;-122.822;2023-02-28T09:14:52;1.93;;;0.77;;
6374;SDS011;35400;45.472;-122.822;2023-02-28T09:17:19;2.70;;;0.60;;
6374;SDS011;35400;45.472;-122.822;2023-02-28T09:19:47;3.10;;;0.67;;
6374;SDS011;35400;45.472;-122.822;2023-02-28T09:22:14;1.47;;;0.60;;
6374;SDS011;35400;45.472;-122.822;2023-02-28T09:24:42;2.00;;;0.50;;
6374;SDS011;35400;45.472;-122.822;2023-02-28T09:27:10;0.40;;;0.40;;
6374;SDS011;35400;45.472;-122.822;2023-02-28T09:29:37;1.33;;;0.90;;
6374;SDS011;35400;45.472;-122.822;2023-02-28T09:32:03;0.57;;;0.50;;
6374;SDS011;35400;45.472;-122.822;2023-02-28T09:34:31;0.93;;;0.40;;
6374;SDS011;35400;45.472;-122.822;2023-02-28T09:36:58;1.00;;;0.70;;
6374;SDS011;35400;45.472;-122.822;2023-02-28T09:39:25;1.77;;;0.50;;
6374;SDS011;35400;45.472;-122.822;2023-02-28T09:41:52;0.63;;;0.50;;
6374;SDS011;35400;45.472;-122.822;2023-02-28T09:50:17;1.73;;;0.50;;
6374;SDS011;35400;45.472;-122.822;2023-02-28T09:52:51;1.93;;;0.37;;
6374;SDS011;35400;45.472;-122.822;2023-02-28T09:57:56;0.50;;;0.50;;
6374;SDS011;35400;45.472;-122.822;2023-02-28T10:00:38;0.90;;;0.40;;
6374;SDS011;35400;45.472;-122.822;2023-02-28T10:03:12;1.73;;;0.50;;
6374;SDS011;35400;45.472;-122.822;2023-02-28T10:05:56;0.60;;;0.47;;
6374;SDS011;35400;45.472;-122.822;2023-02-28T10:08:41;1.83;;;0.47;;
6374;SDS011;35400;45.472;-122.822;2023-02-28T10:11:24;0.40;;;0.40;;
6374;SDS011;35400;45.472;-122.822;2023-02-28T10:13:54;0.30;;;0.30;;
6374;SDS011;35400;45.472;-122.822;2023-02-28T10:16:37;0.50;;;0.40;;
6374;SDS011;35400;45.472;-122.822;2023-02-28T10:24:44;2.40;;;0.70;;
6374;SDS011;35400;45.472;-122.822;2023-02-28T10:27:14;1.37;;;0.30;;
6374;SDS011;35400;45.472;-122.822;2023-02-28T10:29:47;0.87;;;0.30;;
6374;SDS011;35400;45.472;-122.822;2023-02-28T10:32:34;1.37;;;0.50;;
6374;SDS011;35400;45.472;-122.822;2023-02-28T10:35:13;0.23;;;0.23;;
6374;SDS011;35400;45.472;-122.822;2023-02-28T10:37:47;0.43;;;0.43;;
6374;SDS011;35400;45.472;-122.822;2023-02-28T10:45:24;0.40;;;0.30;;
6374;SDS011;35400;45.472;-122.822;2023-02-28T10:47:56;0.87;;;0.40;;
6374;SDS011;35400;45.472;-122.822;2023-02-28T10:56:02;0.40;;;0.40;;
6374;SDS011;35400;45.472;-122.822;2023-02-28T10:58:46;0.53;;;0.33;;
6374;SDS011;35400;45.472;-122.822;2023-02-28T11:01:24;0.50;;;0.40;;
6374;SDS011;35400;45.472;-122.822;2023-02-28T11:04:01;1.73;;;0.60;;
6374;SDS011;35400;45.472;-122.822;2023-02-28T11:06:29;0.40;;;0.40;;
6374;SDS011;35400;45.472;-122.822;2023-02-28T11:09:04;0.77;;;0.40;;
6374;SDS011;35400;45.472;-122.822;2023-02-28T11:11:44;0.60;;;0.50;;
6374;SDS011;35400;45.472;-122.822;2023-02-28T11:14:32;0.50;;;0.50;;
6374;SDS011;35400;45.472;-122.822;2023-02-28T11:17:19;0.50;;;0.30;;
6374;SDS011;35400;45.472;-122.822;2023-02-28T11:19:50;0.40;;;0.40;;
6374;SDS011;35400;45.472;-122.822;2023-02-28T11:22:23;0.67;;;0.40;;
6374;SDS011;35400;45.472;-122.822;2023-02-28T11:24:55;1.90;;;0.40;;
6374;SDS011;35400;45.472;-122.822;2023-02-28T11:29:57;1.03;;;0.57;;
6374;SDS011;35400;45.472;-122.822;2023-02-28T11:32:26;1.70;;;0.50;;
6374;SDS011;35400;45.472;-122.822;2023-02-28T11:35:03;0.50;;;0.50;;
6374;SDS011;35400;45.472;-122.822;2023-02-28T11:37:36;1.13;;;0.70;;
6374;SDS011;35400;45.472;-122.822;2023-02-28T11:40:18;1.33;;;0.63;;
6374;SDS011;35400;45.472;-122.822;2023-02-28T11:43:54;3.00;;;0.60;;
6374;SDS011;35400;45.472;-122.822;2023-02-28T11:45:54;1.57;;;0.60;;
6374;SDS011;35400;45.472;-122.822;2023-02-28T11:48:27;0.83;;;0.50;;
6374;SDS011;35400;45.472;-122.822;2023-02-28T11:56:48;1.67;;;0.70;;
6374;SDS011;35400;45.472;-122.822;2023-02-28T12:02:03;0.97;;;0.60;;
6374;SDS011;35400;45.472;-122.822;2023-02-28T12:07:35;1.30;;;0.40;;
6374;SDS011;35400;45.472;-122.822;2023-02-28T12:13:21;1.40;;;0.80;;
6374;SDS011;35400;45.472;-122.822;2023-02-28T12:24:18;2.30;;;0.90;;
6374;SDS011;35400;45.472;-122.822;2023-02-28T12:26:49;1.43;;;1.00;;
6374;SDS011;35400;45.472;-122.822;2023-02-28T12:29:29;1.73;;;0.80;;
6374;SDS011;35400;45.472;-122.822;2023-02-28T12:32:05;2.13;;;1.10;;
6374;SDS011;35400;45.472;-122.822;2023-02-28T12:34:47;2.93;;;2.07;;
6374;SDS011;35400;45.472;-122.822;2023-02-28T12:37:36;6.23;;;2.17;;
6374;SDS011;35400;45.472;-122.822;2023-02-28T12:40:26;3.13;;;2.00;;
6374;SDS011;35400;45.472;-122.822;2023-02-28T12:43:08;4.43;;;1.80;;
6374;SDS011;35400;45.472;-122.822;2023-02-28T12:45:44;3.83;;;1.33;;
6374;SDS011;35400;45.472;-122.822;2023-02-28T12:48:21;2.63;;;1.17;;
6374;SDS011;35400;45.472;-122.822;2023-02-28T12:50:58;3.73;;;1.40;;
6374;SDS011;35400;45.472;-122.822;2023-02-28T12:53:31;5.10;;;1.43;;
6374;SDS011;35400;45.472;-122.822;2023-02-28T12:56:16;2.60;;;0.90;;
6374;SDS011;35400;45.472;-122.822;2023-02-28T12:58:48;3.87;;;1.20;;
6374;SDS011;35400;45.472;-122.822;2023-02-28T13:09:55;4.90;;;0.80;;
6374;SDS011;35400;45.472;-122.822;2023-02-28T13:12:24;4.50;;;1.27;;
6374;SDS011;35400;45.472;-122.822;2023-02-28T13:15:02;2.93;;;0.90;;
6374;SDS011;35400;45.472;-122.822;2023-02-28T13:17:39;2.10;;;1.10;;
6374;SDS011;35400;45.472;-122.822;2023-02-28T13:20:16;3.70;;;1.03;;
6374;SDS011;35400;45.472;-122.822;2023-02-28T13:22:50;1.63;;;1.07;;
6374;SDS011;35400;45.472;-122.822;2023-02-28T13:27:49;3.07;;;1.33;;
6374;SDS011;35400;45.472;-122.822;2023-02-28T13:46:38;5.00;;;0.97;;
6374;SDS011;35400;45.472;-122.822;2023-02-28T13:57:34;2.40;;;0.90;;
6374;SDS011;35400;45.472;-122.822;2023-02-28T14:06:10;3.73;;;0.97;;
6374;SDS011;35400;45.472;-122.822;2023-02-28T14:11:52;2.30;;;1.17;;
6374;SDS011;35400;45.472;-122.822;2023-02-28T14:17:03;2.40;;;1.20;;
6374;SDS011;35400;45.472;-122.822;2023-02-28T14:19:35;1.67;;;0.80;;
6374;SDS011;35400;45.472;-122.822;2023-02-28T14:28:00;2.70;;;0.70;;
6374;SDS011;35400;45.472;-122.822;2023-02-28T14:33:42;2.53;;;0.90;;
6374;SDS011;35400;45.472;-122.822;2023-02-28T14:39:07;2.77;;;1.30;;
6374;SDS011;35400;45.472;-122.822;2023-02-28T14:41:38;3.33;;;1.07;;
6374;SDS011;35400;45.472;-122.822;2023-02-28T14:44:39;2.27;;;0.90;;
6374;SDS011;35400;45.472;-122.822;2023-02-28T14:47:02;0.90;;;0.80;;
6374;SDS011;35400;45.472;-122.822;2023-02-28T14:49:34;2.93;;;1.20;;
6374;SDS011;35400;45.472;-122.822;2023-02-28T14:55:01;2.77;;;0.90;;
6374;SDS011;35400;45.472;-122.822;2023-02-28T14:57:34;2.90;;;1.00;;
6374;SDS011;35400;45.472;-122.822;2023-02-28T15:00:23;2.87;;;0.80;;
6374;SDS011;35400;45.472;-122.822;2023-02-28T15:02:51;3.00;;;0.67;;
6374;SDS011;35400;45.472;-122.822;2023-02-28T15:05:28;1.50;;;0.77;;
6374;SDS011;35400;45.472;-122.822;2023-02-28T15:08:06;1.57;;;0.90;;
6374;SDS011;35400;45.472;-122.822;2023-02-28T15:10:44;4.33;;;1.27;;
6374;SDS011;35400;45.472;-122.822;2023-02-28T15:13:18;1.23;;;0.83;;
6374;SDS011;35400;45.472;-122.822;2023-02-28T15:15:56;1.60;;;0.80;;
6374;SDS011;35400;45.472;-122.822;2023-02-28T15:21:20;1.70;;;0.80;;
6374;SDS011;35400;45.472;-122.822;2023-02-28T15:23:56;3.07;;;0.83;;
6374;SDS011;35400;45.472;-122.822;2023-02-28T15:26:32;1.63;;;0.83;;
6374;SDS011;35400;45.472;-122.822;2023-02-28T15:29:05;1.47;;;0.70;;
6374;SDS011;35400;45.472;-122.822;2023-02-28T15:31:43;3.73;;;1.20;;
6374;SDS011;35400;45.472;-122.822;2023-02-28T15:34:40;3.23;;;1.03;;
6374;SDS011;35400;45.472;-122.822;2023-02-28T15:39:56;2.07;;;1.00;;
6374;SDS011;35400;45.472;-122.822;2023-02-28T15:42:30;1.97;;;1.00;;
6374;SDS011;35400;45.472;-122.822;2023-02-28T15:44:57;3.27;;;1.30;;
6374;SDS011;35400;45.472;-122.822;2023-02-28T15:47:26;2.80;;;1.20;;
6374;SDS011;35400;45.472;-122.822;2023-02-28T15:49:58;1.13;;;1.07;;
6374;SDS011;35400;45.472;-122.822;2023-02-28T15:57:48;3.13;;;1.23;;
6374;SDS011;35400;45.472;-122.822;2023-02-28T16:00:21;1.20;;;1.10;;
6374;SDS011;35400;45.472;-122.822;2023-02-28T16:02:51;2.90;;;1.47;;
6374;SDS011;35400;45.472;-122.822;2023-02-28T16:07:57;1.97;;;1.40;;
6374;SDS011;35400;45.472;-122.822;2023-02-28T16:10:26;2.53;;;1.30;;
6374;SDS011;35400;45.472;-122.822;2023-02-28T16:12:55;2.33;;;1.37;;
6374;SDS011;35400;45.472;-122.822;2023-02-28T16:15:24;3.87;;;1.80;;
6374;SDS011;35400;45.472;-122.822;2023-02-28T16:17:54;3.87;;;2.07;;
6374;SDS011;35400;45.472;-122.822;2023-02-28T16:20:23;1.60;;;1.37;;
6374;SDS011;35400;45.472;-122.822;2023-02-28T16:22:56;2.73;;;1.70;;
6374;SDS011;35400;45.472;-122.822;2023-02-28T16:25:29;1.73;;;1.50;;
6374;SDS011;35400;45.472;-122.822;2023-02-28T16:28:01;1.30;;;1.20;;
6374;SDS011;35400;45.472;-122.822;2023-02-28T16:30:29;2.77;;;1.30;;
6374;SDS011;35400;45.472;-122.822;2023-02-28T16:32:59;1.77;;;1.23;;
6374;SDS011;35400;45.472;-122.822;2023-02-28T16:35:26;4.87;;;2.40;;
6374;SDS011;35400;45.472;-122.822;2023-02-28T16:37:53;4.20;;;1.60;;
6374;SDS011;35400;45.472;-122.822;2023-02-28T16:40:21;2.87;;;1.53;;
6374;SDS011;35400;45.472;-122.822;2023-02-28T16:42:51;3.90;;;1.60;;
6374;SDS011;35400;45.472;-122.822;2023-02-28T16:45:21;3.50;;;1.30;;
6374;SDS011;35400;45.472;-122.822;2023-02-28T16:47:50;5.23;;;2.10;;
6374;SDS011;35400;45.472;-122.822;2023-02-28T16:50:19;4.93;;;2.20;;
6374;SDS011;35400;45.472;-122.822;2023-02-28T16:52:51;4.33;;;1.93;;
6374;SDS011;35400;45.472;-122.822;2023-02-28T16:55:20;2.20;;;1.40;;
6374;SDS011;35400;45.472;-122.822;2023-02-28T16:57:51;2.20;;;1.03;;
6374;SDS011;35400;45.472;-122.822;2023-02-28T17:00:30;2.93;;;1.10;;
6374;SDS011;35400;45.472;-122.822;2023-02-28T17:02:58;2.17;;;1.37;;
6374;SDS011;35400;45.472;-122.822;2023-02-28T17:05:32;2.87;;;1.57;;
6374;SDS011;35400;45.472;-122.822;2023-02-28T17:08:08;2.27;;;1.50;;
6374;SDS011;35400;45.472;-122.822;2023-02-28T17:10:36;2.40;;;1.77;;
6374;SDS011;35400;45.472;-122.822;2023-02-28T17:13:04;3.50;;;1.83;;
6374;SDS011;35400;45.472;-122.822;2023-02-28T17:15:34;1.50;;;1.40;;
6374;SDS011;35400;45.472;-122.822;2023-02-28T17:18:03;5.90;;;2.20;;
6374;SDS011;35400;45.472;-122.822;2023-02-28T17:20:31;1.27;;;1.10;;